sensor_id;sensor_type;location;lat;lon;timestamp;temperature;humidity
80236;DHT22;69543;42.138;24.742;2023-05-01T00:01:07;23.60;32.60
80236;DHT22;69543;42.138;24.742;2023-05-01T00:03:32;23.60;32.50
80236;DHT22;69543;42.138;24.742;2023-05-01T00:05:59;23.60;32.60
80236;DHT22;69543;42.138;24.742;2023-05-01T00:08:25;23.60;32.70
80236;DHT22;69543;42.138;24.742;2023-05-01T00:10:51;23.60;32.60
80236;DHT22;69543;42.138;24.742;2023-05-01T00:13:17;23.60;32.60
80236;DHT22;69543;42.138;24.742;2023-05-01T00:15:46;23.60;32.60
80236;DHT22;69543;42.138;24.742;2023-05-01T00:18:12;23.60;32.50
80236;DHT22;69543;42.138;24.742;2023-05-01T00:20:38;23.60;33.70
80236;DHT22;69543;42.138;24.742;2023-05-01T00:23:04;23.60;32.50
80236;DHT22;69543;42.138;24.742;2023-05-01T00:25:29;23.60;32.60
80236;DHT22;69543;42.138;24.742;2023-05-01T00:27:56;23.60;33.60
80236;DHT22;69543;42.138;24.742;2023-05-01T00:30:22;23.60;32.60
80236;DHT22;69543;42.138;24.742;2023-05-01T00:32:48;23.60;32.60
80236;DHT22;69543;42.138;24.742;2023-05-01T00:35:14;23.60;32.60
80236;DHT22;69543;42.138;24.742;2023-05-01T00:37:41;23.60;32.50
80236;DHT22;69543;42.138;24.742;2023-05-01T00:40:07;23.60;32.60
80236;DHT22;69543;42.138;24.742;2023-05-01T00:42:36;23.60;32.60
80236;DHT22;69543;42.138;24.742;2023-05-01T00:45:05;23.60;32.50
80236;DHT22;69543;42.138;24.742;2023-05-01T00:47:31;23.60;32.50
80236;DHT22;69543;42.138;24.742;2023-05-01T00:49:58;23.60;32.60
80236;DHT22;69543;42.138;24.742;2023-05-01T00:52:25;23.60;32.60
80236;DHT22;69543;42.138;24.742;2023-05-01T00:54:51;23.60;32.70
80236;DHT22;69543;42.138;24.742;2023-05-01T00:57:20;23.60;32.70
80236;DHT22;69543;42.138;24.742;2023-05-01T00:59:46;23.60;32.60
80236;DHT22;69543;42.138;24.742;2023-05-01T01:02:12;23.60;32.70
80236;DHT22;69543;42.138;24.742;2023-05-01T01:04:43;23.60;32.80
80236;DHT22;69543;42.138;24.742;2023-05-01T01:07:25;23.60;32.80
80236;DHT22;69543;42.138;24.742;2023-05-01T01:13:16;23.60;32.70
80236;DHT22;69543;42.138;24.742;2023-05-01T01:16:08;23.60;32.80
80236;DHT22;69543;42.138;24.742;2023-05-01T01:18:44;23.60;32.70
80236;DHT22;69543;42.138;24.742;2023-05-01T01:21:26;23.60;32.80
80236;DHT22;69543;42.138;24.742;2023-05-01T01:29:50;23.60;32.80
80236;DHT22;69543;42.138;24.742;2023-05-01T01:35:24;23.60;32.70
80236;DHT22;69543;42.138;24.742;2023-05-01T01:38:00;23.60;32.80
80236;DHT22;69543;42.138;24.742;2023-05-01T01:40:36;23.60;32.80
80236;DHT22;69543;42.138;24.742;2023-05-01T01:43:06;23.60;32.80
80236;DHT22;69543;42.138;24.742;2023-05-01T01:45:39;23.60;32.70
80236;DHT22;69543;42.138;24.742;2023-05-01T01:48:09;23.60;32.70
80236;DHT22;69543;42.138;24.742;2023-05-01T01:50:36;23.60;32.80
80236;DHT22;69543;42.138;24.742;2023-05-01T01:53:04;23.50;32.90
80236;DHT22;69543;42.138;24.742;2023-05-01T01:55:32;23.50;32.90
80236;DHT22;69543;42.138;24.742;2023-05-01T01:58:00;23.50;32.80
80236;DHT22;69543;42.138;24.742;2023-05-01T02:00:27;23.60;32.80
80236;DHT22;69543;42.138;24.742;2023-05-01T02:02:54;23.60;32.80
80236;DHT22;69543;42.138;24.742;2023-05-01T02:05:24;23.60;32.90
80236;DHT22;69543;42.138;24.742;2023-05-01T02:07:51;23.60;32.80
80236;DHT22;69543;42.138;24.742;2023-05-01T02:10:18;23.60;32.70
80236;DHT22;69543;42.138;24.742;2023-05-01T02:12:46;23.60;32.70
80236;DHT22;69543;42.138;24.742;2023-05-01T02:15:15;23.60;32.70
80236;DHT22;69543;42.138;24.742;2023-05-01T02:17:42;23.60;32.70
80236;DHT22;69543;42.138;24.742;2023-05-01T02:20:09;23.60;32.80
80236;DHT22;69543;42.138;24.742;2023-05-01T02:22:40;23.60;32.70
80236;DHT22;69543;42.138;24.742;2023-05-01T02:25:11;23.60;32.80
80236;DHT22;69543;42.138;24.742;2023-05-01T02:27:55;23.60;32.80
80236;DHT22;69543;42.138;24.742;2023-05-01T02:30:22;23.60;32.80
80236;DHT22;69543;42.138;24.742;2023-05-01T02:32:47;23.60;32.80
80236;DHT22;69543;42.138;24.742;2023-05-01T02:35:13;23.60;32.80
80236;DHT22;69543;42.138;24.742;2023-05-01T02:37:39;23.60;32.80
80236;DHT22;69543;42.138;24.742;2023-05-01T02:40:05;23.60;32.80
80236;DHT22;69543;42.138;24.742;2023-05-01T02:42:32;23.60;32.80
80236;DHT22;69543;42.138;24.742;2023-05-01T02:45:02;23.60;32.80
80236;DHT22;69543;42.138;24.742;2023-05-01T02:47:31;23.60;32.70
80236;DHT22;69543;42.138;24.742;2023-05-01T02:49:58;23.60;33.80
80236;DHT22;69543;42.138;24.742;2023-05-01T02:52:25;23.50;32.70
80236;DHT22;69543;42.138;24.742;2023-05-01T02:54:50;23.60;32.80
80236;DHT22;69543;42.138;24.742;2023-05-01T02:57:18;23.60;32.70
80236;DHT22;69543;42.138;24.742;2023-05-01T02:59:45;23.60;32.70
80236;DHT22;69543;42.138;24.742;2023-05-01T03:02:10;23.60;32.80
80236;DHT22;69543;42.138;24.742;2023-05-01T03:04:36;23.60;32.80
80236;DHT22;69543;42.138;24.742;2023-05-01T03:07:02;23.60;32.70
80236;DHT22;69543;42.138;24.742;2023-05-01T03:09:31;23.60;32.80
80236;DHT22;69543;42.138;24.742;2023-05-01T03:11:57;23.60;32.80
80236;DHT22;69543;42.138;24.742;2023-05-01T03:14:23;23.60;32.80
80236;DHT22;69543;42.138;24.742;2023-05-01T03:16:48;23.60;32.80
80236;DHT22;69543;42.138;24.742;2023-05-01T03:19:14;23.60;32.80
80236;DHT22;69543;42.138;24.742;2023-05-01T03:21:40;23.60;32.80
80236;DHT22;69543;42.138;24.742;2023-05-01T03:24:06;23.60;32.80
80236;DHT22;69543;42.138;24.742;2023-05-01T03:26:32;23.60;32.80
80236;DHT22;69543;42.138;24.742;2023-05-01T03:28:58;23.60;32.70
80236;DHT22;69543;42.138;24.742;2023-05-01T03:31:24;23.60;32.80
80236;DHT22;69543;42.138;24.742;2023-05-01T03:33:49;23.60;32.80
80236;DHT22;69543;42.138;24.742;2023-05-01T03:36:15;23.60;32.70
80236;DHT22;69543;42.138;24.742;2023-05-01T03:38:41;23.60;32.80
80236;DHT22;69543;42.138;24.742;2023-05-01T03:41:07;23.60;32.70
80236;DHT22;69543;42.138;24.742;2023-05-01T03:43:33;23.60;32.80
80236;DHT22;69543;42.138;24.742;2023-05-01T03:45:59;23.60;32.80
80236;DHT22;69543;42.138;24.742;2023-05-01T03:48:24;23.50;32.70
80236;DHT22;69543;42.138;24.742;2023-05-01T03:50:51;23.50;32.80
80236;DHT22;69543;42.138;24.742;2023-05-01T03:53:16;23.60;32.80
80236;DHT22;69543;42.138;24.742;2023-05-01T03:55:43;23.60;32.80
80236;DHT22;69543;42.138;24.742;2023-05-01T03:58:08;23.60;32.80
80236;DHT22;69543;42.138;24.742;2023-05-01T04:00:37;23.60;32.90
80236;DHT22;69543;42.138;24.742;2023-05-01T04:03:03;23.60;32.80
80236;DHT22;69543;42.138;24.742;2023-05-01T04:05:30;23.50;32.80
80236;DHT22;69543;42.138;24.742;2023-05-01T04:07:56;23.60;32.80
80236;DHT22;69543;42.138;24.742;2023-05-01T04:10:21;23.60;32.80
80236;DHT22;69543;42.138;24.742;2023-05-01T04:12:47;23.60;32.80
80236;DHT22;69543;42.138;24.742;2023-05-01T04:15:13;23.60;32.80
80236;DHT22;69543;42.138;24.742;2023-05-01T04:17:39;23.50;32.80
80236;DHT22;69543;42.138;24.742;2023-05-01T04:20:05;23.60;34.00
80236;DHT22;69543;42.138;24.742;2023-05-01T04:22:34;23.60;32.80
80236;DHT22;69543;42.138;24.742;2023-05-01T04:25:00;23.50;32.80
80236;DHT22;69543;42.138;24.742;2023-05-01T04:27:25;23.60;32.80
80236;DHT22;69543;42.138;24.742;2023-05-01T04:29:51;23.50;32.70
80236;DHT22;69543;42.138;24.742;2023-05-01T04:32:17;23.60;32.80
80236;DHT22;69543;42.138;24.742;2023-05-01T04:34:43;23.60;32.80
80236;DHT22;69543;42.138;24.742;2023-05-01T04:37:09;23.50;32.80
80236;DHT22;69543;42.138;24.742;2023-05-01T04:39:35;23.60;32.90
80236;DHT22;69543;42.138;24.742;2023-05-01T04:42:01;23.60;33.00
80236;DHT22;69543;42.138;24.742;2023-05-01T04:44:28;23.60;32.80
80236;DHT22;69543;42.138;24.742;2023-05-01T04:46:53;23.60;32.80
80236;DHT22;69543;42.138;24.742;2023-05-01T04:49:21;23.60;32.80
80236;DHT22;69543;42.138;24.742;2023-05-01T04:51:47;23.60;32.80
80236;DHT22;69543;42.138;24.742;2023-05-01T04:54:12;23.60;32.80
80236;DHT22;69543;42.138;24.742;2023-05-01T04:56:38;23.60;32.80
80236;DHT22;69543;42.138;24.742;2023-05-01T04:59:04;23.50;32.80
80236;DHT22;69543;42.138;24.742;2023-05-01T05:01:29;23.60;32.90
80236;DHT22;69543;42.138;24.742;2023-05-01T05:03:55;23.50;32.80
80236;DHT22;69543;42.138;24.742;2023-05-01T05:06:21;23.50;32.90
80236;DHT22;69543;42.138;24.742;2023-05-01T05:08:47;23.50;32.90
80236;DHT22;69543;42.138;24.742;2023-05-01T05:11:19;23.60;32.90
80236;DHT22;69543;42.138;24.742;2023-05-01T05:13:45;23.50;32.80
80236;DHT22;69543;42.138;24.742;2023-05-01T05:16:11;23.50;32.80
80236;DHT22;69543;42.138;24.742;2023-05-01T05:18:37;23.50;32.80
80236;DHT22;69543;42.138;24.742;2023-05-01T05:21:06;23.50;32.80
80236;DHT22;69543;42.138;24.742;2023-05-01T05:23:33;23.50;32.80
80236;DHT22;69543;42.138;24.742;2023-05-01T05:25:59;23.50;32.80
80236;DHT22;69543;42.138;24.742;2023-05-01T05:28:26;23.50;32.90
80236;DHT22;69543;42.138;24.742;2023-05-01T05:30:52;23.60;32.80
80236;DHT22;69543;42.138;24.742;2023-05-01T05:33:18;23.60;33.00
80236;DHT22;69543;42.138;24.742;2023-05-01T05:35:44;23.50;32.90
80236;DHT22;69543;42.138;24.742;2023-05-01T05:38:10;23.60;32.90
80236;DHT22;69543;42.138;24.742;2023-05-01T05:40:35;23.50;32.90
80236;DHT22;69543;42.138;24.742;2023-05-01T05:43:01;23.50;32.80
80236;DHT22;69543;42.138;24.742;2023-05-01T05:45:27;23.60;32.80
80236;DHT22;69543;42.138;24.742;2023-05-01T05:47:53;23.50;32.80
80236;DHT22;69543;42.138;24.742;2023-05-01T05:50:19;23.50;32.80
80236;DHT22;69543;42.138;24.742;2023-05-01T05:52:44;23.50;32.80
80236;DHT22;69543;42.138;24.742;2023-05-01T05:55:10;23.50;32.80
80236;DHT22;69543;42.138;24.742;2023-05-01T05:57:36;23.60;32.80
80236;DHT22;69543;42.138;24.742;2023-05-01T06:00:03;23.60;32.90
80236;DHT22;69543;42.138;24.742;2023-05-01T06:02:30;23.60;32.90
80236;DHT22;69543;42.138;24.742;2023-05-01T06:04:56;23.60;32.80
80236;DHT22;69543;42.138;24.742;2023-05-01T06:07:22;23.50;32.90
80236;DHT22;69543;42.138;24.742;2023-05-01T06:09:48;23.60;32.90
80236;DHT22;69543;42.138;24.742;2023-05-01T06:12:14;23.60;32.90
80236;DHT22;69543;42.138;24.742;2023-05-01T06:14:40;23.50;32.90
80236;DHT22;69543;42.138;24.742;2023-05-01T06:17:09;23.60;32.90
80236;DHT22;69543;42.138;24.742;2023-05-01T06:19:36;23.60;32.80
80236;DHT22;69543;42.138;24.742;2023-05-01T06:22:01;23.50;32.80
80236;DHT22;69543;42.138;24.742;2023-05-01T06:24:27;23.60;32.80
80236;DHT22;69543;42.138;24.742;2023-05-01T06:26:53;23.50;32.80
80236;DHT22;69543;42.138;24.742;2023-05-01T06:29:19;23.60;32.80
80236;DHT22;69543;42.138;24.742;2023-05-01T06:31:45;23.50;32.80
80236;DHT22;69543;42.138;24.742;2023-05-01T06:34:11;23.60;32.90
80236;DHT22;69543;42.138;24.742;2023-05-01T06:36:37;23.50;32.80
80236;DHT22;69543;42.138;24.742;2023-05-01T06:39:03;23.60;32.90
80236;DHT22;69543;42.138;24.742;2023-05-01T06:41:28;23.60;32.90
80236;DHT22;69543;42.138;24.742;2023-05-01T06:43:54;23.50;32.90
80236;DHT22;69543;42.138;24.742;2023-05-01T06:46:20;23.60;32.90
80236;DHT22;69543;42.138;24.742;2023-05-01T06:48:45;23.60;32.80
80236;DHT22;69543;42.138;24.742;2023-05-01T06:51:11;23.50;32.80
80236;DHT22;69543;42.138;24.742;2023-05-01T06:53:39;23.50;32.80
80236;DHT22;69543;42.138;24.742;2023-05-01T06:56:06;23.60;32.80
80236;DHT22;69543;42.138;24.742;2023-05-01T06:58:32;23.60;32.80
80236;DHT22;69543;42.138;24.742;2023-05-01T07:00:57;23.60;32.80
80236;DHT22;69543;42.138;24.742;2023-05-01T07:03:23;23.60;32.90
80236;DHT22;69543;42.138;24.742;2023-05-01T07:05:52;23.50;32.80
80236;DHT22;69543;42.138;24.742;2023-05-01T07:08:18;23.60;33.00
80236;DHT22;69543;42.138;24.742;2023-05-01T07:10:44;23.60;32.80
80236;DHT22;69543;42.138;24.742;2023-05-01T07:13:09;23.60;32.80
80236;DHT22;69543;42.138;24.742;2023-05-01T07:15:35;23.60;32.80
80236;DHT22;69543;42.138;24.742;2023-05-01T07:18:01;23.60;32.80
80236;DHT22;69543;42.138;24.742;2023-05-01T07:20:30;23.50;32.80
80236;DHT22;69543;42.138;24.742;2023-05-01T07:22:56;23.60;32.80
80236;DHT22;69543;42.138;24.742;2023-05-01T07:25:22;23.60;32.80
80236;DHT22;69543;42.138;24.742;2023-05-01T07:27:49;23.60;32.80
80236;DHT22;69543;42.138;24.742;2023-05-01T07:30:15;23.60;32.80
80236;DHT22;69543;42.138;24.742;2023-05-01T07:32:40;23.60;32.80
80236;DHT22;69543;42.138;24.742;2023-05-01T07:35:06;23.60;32.80
80236;DHT22;69543;42.138;24.742;2023-05-01T07:37:32;23.60;32.80
80236;DHT22;69543;42.138;24.742;2023-05-01T07:39:58;23.60;32.80
80236;DHT22;69543;42.138;24.742;2023-05-01T07:42:26;23.60;32.90
80236;DHT22;69543;42.138;24.742;2023-05-01T07:44:51;23.60;32.80
80236;DHT22;69543;42.138;24.742;2023-05-01T07:47:17;23.60;32.90
80236;DHT22;69543;42.138;24.742;2023-05-01T07:49:42;23.60;34.00
80236;DHT22;69543;42.138;24.742;2023-05-01T07:52:08;23.60;32.90
80236;DHT22;69543;42.138;24.742;2023-05-01T07:54:34;23.60;32.80
80236;DHT22;69543;42.138;24.742;2023-05-01T07:56:59;23.60;32.80
80236;DHT22;69543;42.138;24.742;2023-05-01T07:59:26;23.60;32.90
80236;DHT22;69543;42.138;24.742;2023-05-01T08:01:52;23.60;32.80
80236;DHT22;69543;42.138;24.742;2023-05-01T08:04:18;23.60;32.80
80236;DHT22;69543;42.138;24.742;2023-05-01T08:06:48;23.60;32.80
80236;DHT22;69543;42.138;24.742;2023-05-01T08:09:13;23.60;32.80
80236;DHT22;69543;42.138;24.742;2023-05-01T08:11:39;23.60;32.90
80236;DHT22;69543;42.138;24.742;2023-05-01T08:14:04;23.60;32.80
80236;DHT22;69543;42.138;24.742;2023-05-01T08:16:30;23.50;32.80
80236;DHT22;69543;42.138;24.742;2023-05-01T08:18:56;23.60;32.80
80236;DHT22;69543;42.138;24.742;2023-05-01T08:21:21;23.60;32.90
80236;DHT22;69543;42.138;24.742;2023-05-01T08:23:47;23.60;32.90
80236;DHT22;69543;42.138;24.742;2023-05-01T08:26:12;23.60;32.90
80236;DHT22;69543;42.138;24.742;2023-05-01T08:28:38;23.60;32.90
80236;DHT22;69543;42.138;24.742;2023-05-01T08:31:04;23.50;32.90
80236;DHT22;69543;42.138;24.742;2023-05-01T08:33:29;23.60;32.90
80236;DHT22;69543;42.138;24.742;2023-05-01T08:35:55;23.60;33.00
80236;DHT22;69543;42.138;24.742;2023-05-01T08:38:21;23.60;32.90
80236;DHT22;69543;42.138;24.742;2023-05-01T08:40:51;23.60;32.90
80236;DHT22;69543;42.138;24.742;2023-05-01T08:43:21;23.60;32.80
80236;DHT22;69543;42.138;24.742;2023-05-01T08:45:49;23.60;32.90
80236;DHT22;69543;42.138;24.742;2023-05-01T08:48:16;23.60;33.00
80236;DHT22;69543;42.138;24.742;2023-05-01T08:50:45;23.60;33.00
80236;DHT22;69543;42.138;24.742;2023-05-01T08:53:14;23.60;33.00
80236;DHT22;69543;42.138;24.742;2023-05-01T08:55:43;23.60;33.00
80236;DHT22;69543;42.138;24.742;2023-05-01T08:58:12;23.60;33.00
80236;DHT22;69543;42.138;24.742;2023-05-01T09:00:38;23.50;32.90
80236;DHT22;69543;42.138;24.742;2023-05-01T09:03:05;23.60;33.00
80236;DHT22;69543;42.138;24.742;2023-05-01T09:05:32;23.60;33.00
80236;DHT22;69543;42.138;24.742;2023-05-01T09:07:58;23.60;33.00
80236;DHT22;69543;42.138;24.742;2023-05-01T09:10:25;23.60;33.00
80236;DHT22;69543;42.138;24.742;2023-05-01T09:13:01;23.50;32.90
80236;DHT22;69543;42.138;24.742;2023-05-01T09:15:28;23.60;33.00
80236;DHT22;69543;42.138;24.742;2023-05-01T09:17:56;23.60;33.10
80236;DHT22;69543;42.138;24.742;2023-05-01T09:20:23;23.60;33.00
80236;DHT22;69543;42.138;24.742;2023-05-01T09:22:49;23.60;33.00
80236;DHT22;69543;42.138;24.742;2023-05-01T09:25:15;23.60;33.00
80236;DHT22;69543;42.138;24.742;2023-05-01T09:27:43;23.60;33.00
80236;DHT22;69543;42.138;24.742;2023-05-01T09:30:08;23.60;33.00
80236;DHT22;69543;42.138;24.742;2023-05-01T09:32:34;23.60;33.00
80236;DHT22;69543;42.138;24.742;2023-05-01T09:35:14;23.60;33.00
80236;DHT22;69543;42.138;24.742;2023-05-01T09:37:40;23.60;32.80
80236;DHT22;69543;42.138;24.742;2023-05-01T09:40:08;23.60;33.00
80236;DHT22;69543;42.138;24.742;2023-05-01T09:42:39;23.60;32.90
80236;DHT22;69543;42.138;24.742;2023-05-01T09:45:14;23.60;33.00
80236;DHT22;69543;42.138;24.742;2023-05-01T09:47:41;23.60;32.90
80236;DHT22;69543;42.138;24.742;2023-05-01T09:50:08;23.60;33.00
80236;DHT22;69543;42.138;24.742;2023-05-01T09:52:34;23.60;33.00
80236;DHT22;69543;42.138;24.742;2023-05-01T09:55:16;23.60;33.00
80236;DHT22;69543;42.138;24.742;2023-05-01T09:57:43;23.60;32.90
80236;DHT22;69543;42.138;24.742;2023-05-01T10:00:10;23.60;33.00
80236;DHT22;69543;42.138;24.742;2023-05-01T10:02:37;23.60;33.00
80236;DHT22;69543;42.138;24.742;2023-05-01T10:05:04;23.60;33.00
80236;DHT22;69543;42.138;24.742;2023-05-01T10:07:31;23.60;33.00
80236;DHT22;69543;42.138;24.742;2023-05-01T10:09:56;23.60;33.00
80236;DHT22;69543;42.138;24.742;2023-05-01T10:12:24;23.60;33.00
80236;DHT22;69543;42.138;24.742;2023-05-01T10:14:54;23.60;33.00
80236;DHT22;69543;42.138;24.742;2023-05-01T10:17:21;23.60;33.00
80236;DHT22;69543;42.138;24.742;2023-05-01T10:19:47;23.60;33.00
80236;DHT22;69543;42.138;24.742;2023-05-01T10:22:14;23.60;32.90
80236;DHT22;69543;42.138;24.742;2023-05-01T10:24:41;23.60;32.90
80236;DHT22;69543;42.138;24.742;2023-05-01T10:27:07;23.60;33.00
80236;DHT22;69543;42.138;24.742;2023-05-01T10:29:35;23.60;33.00
80236;DHT22;69543;42.138;24.742;2023-05-01T10:32:05;23.60;33.00
80236;DHT22;69543;42.138;24.742;2023-05-01T10:34:41;23.60;33.00
80236;DHT22;69543;42.138;24.742;2023-05-01T10:37:16;23.60;33.00
80236;DHT22;69543;42.138;24.742;2023-05-01T10:39:42;23.60;33.00
80236;DHT22;69543;42.138;24.742;2023-05-01T10:42:09;23.60;33.10
80236;DHT22;69543;42.138;24.742;2023-05-01T10:44:38;23.60;33.00
80236;DHT22;69543;42.138;24.742;2023-05-01T10:52:29;23.60;33.00
80236;DHT22;69543;42.138;24.742;2023-05-01T10:57:59;23.60;34.10
80236;DHT22;69543;42.138;24.742;2023-05-01T11:00:25;23.60;33.10
80236;DHT22;69543;42.138;24.742;2023-05-01T11:02:51;23.60;33.00
80236;DHT22;69543;42.138;24.742;2023-05-01T11:05:16;23.60;33.00
80236;DHT22;69543;42.138;24.742;2023-05-01T11:07:42;23.60;33.00
80236;DHT22;69543;42.138;24.742;2023-05-01T11:10:26;23.60;33.00
80236;DHT22;69543;42.138;24.742;2023-05-01T11:12:52;23.60;33.00
80236;DHT22;69543;42.138;24.742;2023-05-01T11:15:32;23.60;33.00
80236;DHT22;69543;42.138;24.742;2023-05-01T11:18:01;23.60;32.90
80236;DHT22;69543;42.138;24.742;2023-05-01T11:22:57;23.60;33.00
80236;DHT22;69543;42.138;24.742;2023-05-01T11:25:26;23.60;33.00
80236;DHT22;69543;42.138;24.742;2023-05-01T11:27:58;23.60;33.00
80236;DHT22;69543;42.138;24.742;2023-05-01T11:30:25;23.60;33.10
80236;DHT22;69543;42.138;24.742;2023-05-01T11:32:51;23.60;33.10
80236;DHT22;69543;42.138;24.742;2023-05-01T11:35:23;23.60;33.00
80236;DHT22;69543;42.138;24.742;2023-05-01T11:37:53;23.60;33.00
80236;DHT22;69543;42.138;24.742;2023-05-01T11:43:00;23.60;33.10
80236;DHT22;69543;42.138;24.742;2023-05-01T11:45:26;23.60;33.00
80236;DHT22;69543;42.138;24.742;2023-05-01T11:47:52;23.60;33.00
80236;DHT22;69543;42.138;24.742;2023-05-01T11:50:18;23.60;33.00
80236;DHT22;69543;42.138;24.742;2023-05-01T11:52:47;23.60;33.00
80236;DHT22;69543;42.138;24.742;2023-05-01T11:55:18;23.60;33.00
80236;DHT22;69543;42.138;24.742;2023-05-01T11:57:52;23.60;33.00
80236;DHT22;69543;42.138;24.742;2023-05-01T12:00:32;23.60;33.00
80236;DHT22;69543;42.138;24.742;2023-05-01T12:03:12;23.60;33.00
80236;DHT22;69543;42.138;24.742;2023-05-01T12:05:39;23.60;33.00
80236;DHT22;69543;42.138;24.742;2023-05-01T12:08:20;23.60;33.00
80236;DHT22;69543;42.138;24.742;2023-05-01T12:10:54;23.60;33.00
80236;DHT22;69543;42.138;24.742;2023-05-01T12:13:23;23.60;33.00
80236;DHT22;69543;42.138;24.742;2023-05-01T12:15:53;23.60;33.00
80236;DHT22;69543;42.138;24.742;2023-05-01T12:18:20;23.60;33.00
80236;DHT22;69543;42.138;24.742;2023-05-01T12:20:48;23.60;33.00
80236;DHT22;69543;42.138;24.742;2023-05-01T12:23:19;23.60;33.00
80236;DHT22;69543;42.138;24.742;2023-05-01T12:25:45;23.60;33.00
80236;DHT22;69543;42.138;24.742;2023-05-01T12:28:16;23.60;33.00
80236;DHT22;69543;42.138;24.742;2023-05-01T12:30:44;23.70;33.00
80236;DHT22;69543;42.138;24.742;2023-05-01T12:33:12;23.60;33.00
80236;DHT22;69543;42.138;24.742;2023-05-01T12:35:39;23.60;32.90
80236;DHT22;69543;42.138;24.742;2023-05-01T12:38:19;23.60;33.00
80236;DHT22;69543;42.138;24.742;2023-05-01T12:40:53;23.70;33.00
80236;DHT22;69543;42.138;24.742;2023-05-01T12:43:20;23.60;33.00
80236;DHT22;69543;42.138;24.742;2023-05-01T12:45:50;23.60;33.00
80236;DHT22;69543;42.138;24.742;2023-05-01T12:48:17;23.70;33.00
80236;DHT22;69543;42.138;24.742;2023-05-01T12:50:43;23.70;33.00
80236;DHT22;69543;42.138;24.742;2023-05-01T12:53:10;23.70;33.20
80236;DHT22;69543;42.138;24.742;2023-05-01T12:55:44;23.70;32.90
80236;DHT22;69543;42.138;24.742;2023-05-01T12:58:10;23.70;32.90
80236;DHT22;69543;42.138;24.742;2023-05-01T13:00:53;23.70;32.90
80236;DHT22;69543;42.138;24.742;2023-05-01T13:03:27;23.70;32.80
80236;DHT22;69543;42.138;24.742;2023-05-01T13:05:58;23.70;32.90
80236;DHT22;69543;42.138;24.742;2023-05-01T13:08:37;23.70;32.90
80236;DHT22;69543;42.138;24.742;2023-05-01T13:11:11;23.80;32.80
80236;DHT22;69543;42.138;24.742;2023-05-01T13:13:38;23.80;32.80
80236;DHT22;69543;42.138;24.742;2023-05-01T13:16:12;23.70;32.90
80236;DHT22;69543;42.138;24.742;2023-05-01T13:21:10;23.80;32.90
80236;DHT22;69543;42.138;24.742;2023-05-01T13:23:37;23.80;32.80
80236;DHT22;69543;42.138;24.742;2023-05-01T13:26:05;23.80;32.80
80236;DHT22;69543;42.138;24.742;2023-05-01T13:28:39;23.80;32.80
80236;DHT22;69543;42.138;24.742;2023-05-01T13:31:14;23.90;32.90
80236;DHT22;69543;42.138;24.742;2023-05-01T13:33:41;23.90;32.90
80236;DHT22;69543;42.138;24.742;2023-05-01T13:36:11;23.90;32.90
80236;DHT22;69543;42.138;24.742;2023-05-01T13:38:51;23.80;32.80
80236;DHT22;69543;42.138;24.742;2023-05-01T13:41:21;23.80;32.80
80236;DHT22;69543;42.138;24.742;2023-05-01T13:43:49;23.80;32.80
80236;DHT22;69543;42.138;24.742;2023-05-01T13:46:16;23.90;32.80
80236;DHT22;69543;42.138;24.742;2023-05-01T13:48:42;23.80;32.80
80236;DHT22;69543;42.138;24.742;2023-05-01T13:51:08;23.90;32.80
80236;DHT22;69543;42.138;24.742;2023-05-01T13:53:34;23.90;32.80
80236;DHT22;69543;42.138;24.742;2023-05-01T13:56:05;23.90;32.80
80236;DHT22;69543;42.138;24.742;2023-05-01T13:58:33;23.90;32.80
80236;DHT22;69543;42.138;24.742;2023-05-01T14:00:59;23.90;32.70
80236;DHT22;69543;42.138;24.742;2023-05-01T14:03:26;24.00;32.80
80236;DHT22;69543;42.138;24.742;2023-05-01T14:05:54;24.00;32.80
80236;DHT22;69543;42.138;24.742;2023-05-01T14:08:20;23.90;32.70
80236;DHT22;69543;42.138;24.742;2023-05-01T14:10:51;24.00;32.70
80236;DHT22;69543;42.138;24.742;2023-05-01T14:13:17;24.00;32.80
80236;DHT22;69543;42.138;24.742;2023-05-01T14:15:43;24.00;32.70
80236;DHT22;69543;42.138;24.742;2023-05-01T14:18:14;24.00;32.70
80236;DHT22;69543;42.138;24.742;2023-05-01T14:20:40;24.00;32.60
80236;DHT22;69543;42.138;24.742;2023-05-01T14:23:07;24.00;32.60
80236;DHT22;69543;42.138;24.742;2023-05-01T14:25:33;24.00;32.60
80236;DHT22;69543;42.138;24.742;2023-05-01T14:28:03;24.00;32.50
80236;DHT22;69543;42.138;24.742;2023-05-01T14:30:33;24.10;32.60
80236;DHT22;69543;42.138;24.742;2023-05-01T14:33:02;24.10;32.60
80236;DHT22;69543;42.138;24.742;2023-05-01T14:35:28;24.10;32.60
80236;DHT22;69543;42.138;24.742;2023-05-01T14:37:54;24.10;32.50
80236;DHT22;69543;42.138;24.742;2023-05-01T14:40:26;24.10;32.60
80236;DHT22;69543;42.138;24.742;2023-05-01T14:42:53;24.10;32.50
80236;DHT22;69543;42.138;24.742;2023-05-01T14:45:19;24.10;33.70
80236;DHT22;69543;42.138;24.742;2023-05-01T14:47:46;24.10;32.50
80236;DHT22;69543;42.138;24.742;2023-05-01T14:50:20;24.20;32.50
80236;DHT22;69543;42.138;24.742;2023-05-01T14:52:57;24.20;32.50
80236;DHT22;69543;42.138;24.742;2023-05-01T14:55:27;24.20;32.50
80236;DHT22;69543;42.138;24.742;2023-05-01T14:57:54;24.20;32.50
80236;DHT22;69543;42.138;24.742;2023-05-01T15:00:21;24.20;32.40
80236;DHT22;69543;42.138;24.742;2023-05-01T15:02:47;24.20;32.50
80236;DHT22;69543;42.138;24.742;2023-05-01T15:05:13;24.30;32.40
80236;DHT22;69543;42.138;24.742;2023-05-01T15:07:39;24.20;32.40
80236;DHT22;69543;42.138;24.742;2023-05-01T15:10:06;24.30;32.40
80236;DHT22;69543;42.138;24.742;2023-05-01T15:12:32;24.30;32.40
80236;DHT22;69543;42.138;24.742;2023-05-01T15:14:58;24.30;32.40
80236;DHT22;69543;42.138;24.742;2023-05-01T15:17:23;24.30;32.40
80236;DHT22;69543;42.138;24.742;2023-05-01T15:19:49;24.30;32.40
80236;DHT22;69543;42.138;24.742;2023-05-01T15:22:15;24.30;32.40
80236;DHT22;69543;42.138;24.742;2023-05-01T15:24:41;24.30;32.50
80236;DHT22;69543;42.138;24.742;2023-05-01T15:27:06;24.30;32.40
80236;DHT22;69543;42.138;24.742;2023-05-01T15:29:32;24.30;32.50
80236;DHT22;69543;42.138;24.742;2023-05-01T15:31:59;24.30;32.40
80236;DHT22;69543;42.138;24.742;2023-05-01T15:34:24;24.30;32.40
80236;DHT22;69543;42.138;24.742;2023-05-01T15:36:50;24.30;32.40
80236;DHT22;69543;42.138;24.742;2023-05-01T15:39:16;24.30;32.40
80236;DHT22;69543;42.138;24.742;2023-05-01T15:41:42;24.30;32.30
80236;DHT22;69543;42.138;24.742;2023-05-01T15:44:08;24.40;32.40
80236;DHT22;69543;42.138;24.742;2023-05-01T15:46:38;24.40;32.40